Latest Coastal Weather Observations for Derby

IDW60701

Issued at 2:12 pm WST Thursday 28 May 2015 (issued every 10 minutes, with the page automatically refreshed every 10 minutes)

About coastal observations | Map of coastal stations | Coastal observations for WA | Marine services | Other Formats
Station Details ID: 003032 Name: DERBY AERO Lat: -17.37 Lon: 123.66 Height: 6.2 m
Data from the previous 72 hours. | See also: Recent months at Derby
Date/Time
WST
Temp

°C
Wind Pressure Rain
since 9am
mm
Weather Cloud Vis
km
Sea
Height
m
Swell
Dir
 
Speed
knots
Gust
knots
hPa Trend Height
m
Period
s
Dir
28/02:00pm 34.6 WNW 7 12 1011.4 - 0.0 - - - - - - -
28/01:30pm 35.3 NW 6 11 1011.5 - 0.0 - - - - - - -
28/01:00pm 34.2 NW 5 7 1011.8 - 0.0 - - - - - - -
28/12:30pm 34.2 S 5 10 1012.3 - 0.0 - - - - - - -
28/12:00pm 33.0 SSE 4 8 1012.8 - 0.0 - - - - - - -
28/11:30am 32.6 E 4 9 1013.4 - 0.0 - - - - - - -
28/11:00am 31.6 SE 6 10 1014.0 - 0.0 - - - - - - -
28/10:30am 30.3 ESE 4 7 1014.5 - 0.0 - - - - - - -
28/10:00am 28.5 ESE 4 7 1015.0 - 0.0 - - - - - - -
28/09:30am 27.0 SE 5 8 1015.3 - 0.0 - - - - - - -
28/09:00am 25.5 SE 7 9 1015.4 - 0.0 - - - - - - -
28/08:30am 24.3 SSE 7 9 1015.5 - 0.0 - - - - - - -
28/08:00am 22.8 SSE 5 8 1015.6 - 0.0 - - - - - - -
28/07:30am 22.1 SE 5 8 1015.3 - 0.0 - - - - - - -
28/07:00am 20.4 SSE 1 4 1015.0 - 0.0 - - - - - - -
28/06:30am 18.7 SSE 4 4 1014.6 - 0.0 - - - - - - -
28/06:00am 18.6 S 4 5 1014.2 - 0.0 - - - - - - -
28/05:30am 19.3 SSE 5 6 1013.9 - 0.0 - - - - - - -
28/05:00am 19.8 S 7 9 1013.4 - 0.0 - - - - - - -
28/04:30am 19.9 SSE 6 6 1013.2 - 0.0 - - - - - - -
28/04:00am 20.0 S 5 5 1013.1 - 0.0 - - - - - - -
28/03:30am 20.7 SSE 3 4 1013.0 - 0.0 - - - - - - -
28/03:00am 21.7 SSE 2 4 1013.0 - 0.0 - - - - - - -
28/02:30am 22.1 SSE 5 7 1012.9 - 0.0 - - - - - - -
28/02:00am 22.1 S 5 6 1012.9 - 0.0 - - - - - - -
28/01:30am 22.3 S 5 6 1013.1 - 0.0 - - - - - - -
28/01:00am 22.8 S 6 7 1013.3 - 0.0 - - - - - - -
28/12:30am 22.7 S 5 6 1013.3 - 0.0 - - - - - - -
28/12:00am 22.9 SSE 5 6 1013.5 - 0.0 - - - - - - -
 
Date/Time
WST
Temp

°C
Wind Pressure Rain
since 9am
mm
Weather Cloud Vis
km
Sea
Height
m
Swell
Dir
 
Speed
knots
Gust
knots
hPa Trend Height
m
Period
s
Dir
27/11:30pm 23.4 S 5 6 1013.5 - 0.0 - - - - - - -
27/11:00pm 23.9 S 5 5 1013.6 - 0.0 - - - - - - -
27/10:30pm 24.3 SSE 4 5 1013.8 - 0.0 - - - - - - -
27/10:00pm 24.0 S 4 5 1013.7 - 0.0 - - - - - - -
27/09:30pm 24.2 SW 6 7 1013.8 - 0.0 - - - - - - -
27/09:00pm 24.8 NW 5 6 1013.7 - 0.0 - - - - - - -
27/08:30pm 23.9 NNW 7 8 1013.6 - 0.0 - - - - - - -
27/08:00pm 24.8 NNW 4 5 1013.4 - 0.0 - - - - - - -
27/07:30pm 25.5 CALM 0 0 1013.2 - 0.0 - - - - - - -
27/07:00pm 26.1 NNW 4 4 1013.0 - 0.0 - - - - - - -
27/06:30pm 26.2 NW 6 6 1012.6 - 0.0 - - - - - - -
27/06:00pm 27.1 NW 4 5 1012.2 - 0.0 - - - - - - -
27/05:30pm 28.3 NW 6 7 1011.6 - 0.0 - - - - - - -
27/05:00pm 30.4 NW 7 8 1011.4 - 0.0 - - - - - - -
27/04:30pm 32.2 NW 7 10 1011.2 - 0.0 - - - - - - -
27/04:00pm 33.2 NW 8 10 1011.0 - 0.0 - - - - - - -
27/03:30pm 33.6 NW 8 10 1010.8 - 0.0 - - - - - - -
27/03:00pm 33.7 NW 8 10 1010.9 - 0.0 - - - - - - -
27/02:30pm 34.0 WNW 9 11 1011.0 - 0.0 - - - - - - -
27/02:00pm 33.8 WNW 9 12 1011.1 - 0.0 - - - - - - -
27/01:30pm 33.9 NW 8 11 1011.4 - 0.0 - - - - - - -
27/01:00pm 33.1 WNW 9 12 1011.7 - 0.0 - - - - - - -
27/12:30pm 33.3 WNW 7 10 1012.2 - 0.0 - - - - - - -
27/12:00pm 33.8 NW 6 11 1012.7 - 0.0 - - - - - - -
27/11:30am 32.5 W 6 9 1013.2 - 0.0 - - - - - - -
27/11:00am 32.7 WNW 3 9 1013.9 - 0.0 - - - - - - -
27/10:30am 31.0 NW 4 7 1014.3 - 0.0 - - - - - - -
27/10:00am 30.3 NW 4 6 1014.8 - 0.0 - - - - - - -
27/09:30am 28.8 NNW 3 5 1015.3 - 0.0 - - - - - - -
27/09:00am 26.7 NW 4 5 1015.8 - 0.0 - - - - - - -
27/08:30am 25.8 CALM 0 0 1015.9 - 0.0 - - - - - - -
27/08:00am 24.1 CALM 0 0 1015.8 - 0.0 - - - - - - -
27/07:30am 22.1 N 3 3 1015.5 - 0.0 - - - - - - -
27/07:00am 20.1 NE 3 4 1015.2 - 0.0 - - - - - - -
27/06:30am 18.7 NE 5 5 1014.9 - 0.0 - - - - - - -
27/06:00am 16.9 ENE 4 5 1014.8 - 0.0 - - - - - - -
27/05:30am 17.4 CALM 0 0 1014.7 - 0.0 - - - - - - -
27/05:00am 17.5 CALM 0 0 1014.5 - 0.0 - - - - - - -
27/04:30am 18.1 CALM 0 0 1014.2 - 0.0 - - - - - - -
27/04:00am 18.6 ESE 1 3 1014.0 - 0.0 - - - - - - -
27/03:30am 19.2 SE 4 5 1014.1 - 0.0 - - - - - - -
27/03:00am 20.3 SE 3 4 1014.1 - 0.0 - - - - - - -
27/02:30am 20.0 SE 5 5 1014.2 - 0.0 - - - - - - -
27/02:00am 20.6 SSE 5 6 1014.5 - 0.0 - - - - - - -
27/01:30am 20.0 SSE 4 5 1014.7 - 0.0 - - - - - - -
27/01:00am 21.1 S 4 5 1014.9 - 0.0 - - - - - - -
27/12:30am 21.6 S 3 4 1015.1 - 0.0 - - - - - - -
27/12:00am 22.0 S 4 5 1015.5 - 0.0 - - - - - - -
 
Date/Time
WST
Temp

°C
Wind Pressure Rain
since 9am
mm
Weather Cloud Vis
km
Sea
Height
m
Swell
Dir
 
Speed
knots
Gust
knots
hPa Trend Height
m
Period
s
Dir
26/11:30pm 21.2 S 4 4 1015.7 - 0.0 - - - - - - -
26/11:00pm 21.5 CALM 0 0 1016.0 - 0.0 - - - - - - -
26/10:30pm 22.6 S 3 5 1016.3 - 0.0 - - - - - - -
26/10:00pm 23.3 S 4 5 1016.6 - 0.0 - - - - - - -
26/09:30pm 22.4 S 6 7 1016.6 - 0.0 - - - - - - -
26/09:00pm 22.7 CALM 0 0 1016.4 - 0.0 - - - - - - -
26/08:30pm 23.0 CALM 0 0 1016.3 - 0.0 - - - - - - -
26/08:00pm 23.8 CALM 0 0 1016.4 - 0.0 - - - - - - -
26/07:30pm 23.9 CALM 0 3 1016.0 - 0.0 - - - - - - -
26/07:00pm 24.8 CALM 0 0 1015.8 - 0.0 - - - - - - -
26/06:30pm 26.3 CALM 0 0 1015.4 - 0.0 - - - - - - -
26/06:00pm 26.4 NW 4 5 1015.0 - 0.0 - - - - - - -
26/05:30pm 27.4 NW 4 5 1014.7 - 0.0 - - - - - - -
26/05:00pm 29.0 WNW 6 7 1014.2 - 0.0 - - - - - - -
26/04:30pm 30.0 NW 7 9 1014.0 - 0.0 - - - - - - -
26/04:00pm 30.8 NW 7 9 1013.9 - 0.0 - - - - - - -
26/03:30pm 31.3 WNW 7 10 1013.8 - 0.0 - - - - - - -
26/03:00pm 31.3 NW 8 10 1013.7 - 0.0 - - - - - - -
26/02:30pm 31.0 NW 9 11 1013.7 - 0.0 - - - - - - -
26/02:00pm 32.0 WNW 7 13 1013.8 - 0.0 - - - - - - -
26/01:30pm 31.4 NW 9 12 1014.1 - 0.0 - - - - - - -
26/01:00pm 31.5 NW 10 13 1014.6 - 0.0 - - - - - - -
26/12:30pm 30.9 NW 11 14 1015.0 - 0.0 - - - - - - -
26/12:00pm 31.1 NW 9 12 1015.4 - 0.0 - - - - - - -
26/11:30am 31.0 NW 9 12 1015.9 - 0.0 - - - - - - -
26/11:00am 30.0 NNW 9 13 1016.3 - 0.0 - - - - - - -
26/10:30am 29.9 N 6 10 1016.7 - 0.0 - - - - - - -
26/10:00am 29.1 NNE 6 9 1017.1 - 0.0 - - - - - - -
26/09:30am 27.5 NE 6 8 1017.5 - 0.0 - - - - - - -
26/09:00am 26.2 ENE 5 7 1017.4 - 0.0 - - - - - - -
26/08:30am 23.8 E 6 7 1017.5 - 0.0 - - - - - - -
26/08:00am 22.7 E 5 7 1017.4 - 0.0 - - - - - - -
26/07:30am 21.6 E 2 4 1017.4 - 0.0 - - - - - - -
26/07:00am 18.3 CALM 0 0 1017.1 - 0.0 - - - - - - -
26/06:30am 16.4 ESE 1 3 1016.9 - 0.0 - - - - - - -
26/06:00am 16.2 S 3 4 1016.7 - 0.0 - - - - - - -
26/05:30am 16.2 CALM 0 1 1016.3 - 0.0 - - - - - - -
26/05:00am 17.0 SSE 4 5 1015.9 - 0.0 - - - - - - -
26/04:30am 17.3 S 4 5 1015.9 - 0.0 - - - - - - -
26/04:00am 17.8 CALM 0 0 1015.5 - 0.0 - - - - - - -
26/03:30am 17.7 SSE 1 3 1015.5 - 0.0 - - - - - - -
26/03:00am 19.0 SSE 4 6 1015.4 - 0.0 - - - - - - -
26/02:30am 19.8 SSE 7 9 1015.5 - 0.0 - - - - - - -
26/02:00am 20.9 SSE 7 8 1015.7 - 0.0 - - - - - - -
26/01:30am 20.4 SE 6 8 1015.9 - 0.0 - - - - - - -
26/01:00am 20.5 SSE 7 9 1016.4 - 0.0 - - - - - - -
26/12:30am 20.8 SSE 5 6 1016.6 - 0.0 - - - - - - -
26/12:00am 21.6 SSE 5 6 1016.6 - 0.0 - - - - - - -
 
Date/Time
WST
Temp

°C
Wind Pressure Rain
since 9am
mm
Weather Cloud Vis
km
Sea
Height
m
Swell
Dir
 
Speed
knots
Gust
knots
hPa Trend Height
m
Period
s
Dir
25/11:30pm 22.4 S 5 6 1016.7 - 0.0 - - - - - - -
25/11:00pm 23.6 SSE 5 5 1016.8 - 0.0 - - - - - - -
25/10:30pm 25.2 SSE 4 5 1017.0 - 0.0 - - - - - - -
25/10:00pm 25.5 SSW 7 10 1016.9 - 0.0 - - - - - - -
25/09:30pm 24.5 WNW 5 5 1016.6 - 0.0 - - - - - - -
25/09:00pm 24.9 W 4 4 1016.6 - 0.0 - - - - - - -
25/08:30pm 25.6 NW 1 3 1016.5 - 0.0 - - - - - - -
25/08:00pm 26.1 CALM 0 2 1016.3 - 0.0 - - - - - - -
25/07:30pm 26.1 NW 5 6 1016.0 - 0.0 - - - - - - -
25/07:00pm 26.4 NW 4 4 1015.6 - 0.0 - - - - - - -
25/06:30pm 26.6 NW 4 5 1015.0 - 0.0 - - - - - - -
25/06:00pm 26.7 NW 4 6 1014.7 - 0.0 - - - - - - -
25/05:30pm 27.4 NW 5 6 1014.6 - 0.0 - - - - - - -
25/05:00pm 29.4 NW 7 9 1014.4 - 0.0 - - - - - - -
25/04:30pm 30.9 WNW 7 10 1014.1 - 0.0 - - - - - - -
25/04:00pm 32.4 NNW 5 9 1014.0 - 0.0 - - - - - - -
25/03:30pm 33.0 E 4 8 1013.8 - 0.0 - - - - - - -
25/03:00pm 33.0 NNW 5 9 1013.6 - 0.0 - - - - - - -
25/02:30pm 32.7 N 7 9 1013.6 - 0.0 - - - - - - -

Other Formats:

Comma delimited format used in spreadsheet applications
http://www.bom.gov.au/fwo/IDW60701/IDW60701.95205.axf

JavaScript Object Notation format (JSON) in row-major order
http://www.bom.gov.au/fwo/IDW60701/IDW60701.95205.json